Pagrindinis puslapis
METAR-TAF:

METAR-TAF

Oro uostai :

Şırnak, Turkija

platuma: 37-21-50N, ilguma: 42-03-36E, Aukštis: 621 m

Dabartinis oras

Ataskaita buvo paskelbta 5 valandos ir 44 minutes, ne 12:50 UTC
Vėjas 12 kt iš Pietryčių, svyruoja nuo Rytų/Pietryčių ir Pietų
Temperatūra 37°C
Drėgmė 13%
Slėgis 1008 hPa
Matomumas 10 km arba daugiau
nėra debesų žemiau 1500 m ir nėra kamuolinių lietaus debesų

METAR: LTCV 151250Z 13012KT 110V170 CAVOK 37/04 Q1008

Laikas: 21:34 (18:34 UTC)

Prognozė

Ataskaita buvo paskelbta 4 valandos ir 54 minutes, ne 13:40 UTC
Prognozė galioja nuo 15 metu 15 UTC su 15 metu 24 UTC
Vėjas 12 kt iš Rytų/Pietryčių
Matomumas 10 km arba daugiau
nėra debesų žemiau 1500 m ir nėra kamuolinių lietaus debesų
Tapsmas
nuo 15 metu 15 UTC su 15 metu 18 UTC
Vėjas 7 kt iš Šiaurės Rytų

TAF: LTCV 151340Z 1515/1524 12012KT CAVOK BECMG 1515/1518 04007KT

Orai ataskaitas ir orų prognozės (METAR, TAF).

turimą stotys yra geltonos ir raudonos taškus žemėlapyje.

Perkelti pele per norėdami pamatyti stoties vardą.

Tada spustelėkite, norėdami matyti oro stebėjimo ir prognozės.

Norėdami pakeisti žemėlapį: spustelėkite ant žalios mygtukų su juodo kryžiaus žemyn,; žalią mygtuką su brūkšneliu, jei norite nutolinti; arba žalių rodyklių gretimoms žemėlapius.


METAR-TAF: